Airfield :
LOGIN :

Register | Disclaimer

   EN    FR    IT 

 










Legend :    VFR   Marginal VFR   IFR   Intensive IFR   Very Intensive IFR
Visi :
Ceiling :
>= 8 km
>= 3000ft
5 to 8 km
1000 to 3000 ft
1500m to 5 km
500 to 1000 ft
800 to 1500m
200 to 500 ft
< 800m
< 200 ft
Symbols :   Thunderstorms  Fog  Heavy snow  Heavy precipitations  Wind > 20 kt
SIGMETs :     Misc.  Thunderstorms  Icing  Turbulence  Mountain Waves  Volcanic Ashes






- Airport Elevation : 74 ft
- IATA code : EIN


EHEH - Eindhoven

CURRENT METAR :
  • 271255Z AUTO 19013KT 150V220 9999 -DZ FEW039 SCT043 BKN071 20/15 Q1012 REDZ BLU TEMPO 22015G28KT

EXPIRED METARs :
  • 271231Z AUTO 19018KT 170V230 9999 FEW025 SCT032 BKN089 20/14 Q1012 BLU TEMPO 22015G28KT
  • 271225Z AUTO 18014KT 150V220 9999 FEW024 SCT087 OVC093 21/15 Q1012 BLU NOSIG
  • 271155Z AUTO 18011KT 150V220 9999 FEW088 BKN098 OVC100 20/15 Q1012 BLU NOSIG
  • 271129Z AUTO 18012KT 150V210 9999 FEW020 SCT076 BKN087 19/15 Q1012 BLU NOSIG
  • 271125Z AUTO 18011KT 150V210 9999 BKN020 BKN024 OVC087 19/15 Q1012 WHT NOSIG
  • 271119Z AUTO 18011KT 150V210 9999 FEW020 SCT024 OVC097 20/15 Q1012 WHT NOSIG
  • 271110Z AUTO 18012KT 150V220 9999 FEW020 SCT023 BKN096 20/15 Q1012 WHT NOSIG
  • 271059Z AUTO 18013KT 150V220 9999 FEW020 SCT024 OVC100 19/15 Q1012 WHT NOSIG
  • 271055Z AUTO 19013KT 150V220 9999 FEW022 SCT025 OVC110 20/15 Q1012 BLU NOSIG
  • 271025Z AUTO 18012KT 150V210 9999 FEW018 BKN021 OVC120 20/15 Q1012 WHT TEMPO SCT012 BKN017

TAF TAF EHEH
Valid from the 27 at 12:00 until the 28 at 18:00 UTC


271100Z 2712/2818 18010G20KT 9999 SCT022 BKN100
TEMPO 2713/2717 25014G24KT 4500 -RA
PROB40
TEMPO 2714/2717 27016G28KT 2500 SHRA RA SCT012 SCT018CB BKN020
BECMG 2716/2719 22006KT



MET'MAP, your aeronautical weather chart ! - Copyright ORBIFLY December 2007 - Disclaimer

ORBIFLY MET'MAP TEAM :

Programming & Development : Alexandra Zaïnal
Concept & original design : Baudouin d'Aumeries
Assistance for programming : Marc-Olivier Méhu
Technical & hardware support : Manuel Goepfert

Contact : metmap@orbifly.com




SOURCES & CREDITS :

   NOAA